sensor_id;sensor_type;location;lat;lon;timestamp;P1;durP1;ratioP1;P2;durP2;ratioP2
30697;SDS011;17448;47.200;10.902;2024-03-25T00:01:25;2.05;;;1.27;;
30697;SDS011;17448;47.200;10.902;2024-03-25T00:03:51;3.92;;;1.35;;
30697;SDS011;17448;47.200;10.902;2024-03-25T00:06:18;2.97;;;1.40;;
30697;SDS011;17448;47.200;10.902;2024-03-25T00:08:44;2.03;;;1.40;;
30697;SDS011;17448;47.200;10.902;2024-03-25T00:11:11;3.20;;;1.25;;
30697;SDS011;17448;47.200;10.902;2024-03-25T00:13:37;1.77;;;1.35;;
30697;SDS011;17448;47.200;10.902;2024-03-25T00:16:04;3.85;;;1.25;;
30697;SDS011;17448;47.200;10.902;2024-03-25T00:18:31;3.28;;;1.27;;
30697;SDS011;17448;47.200;10.902;2024-03-25T00:20:57;3.70;;;1.30;;
30697;SDS011;17448;47.200;10.902;2024-03-25T00:23:24;2.67;;;1.08;;
30697;SDS011;17448;47.200;10.902;2024-03-25T00:25:50;2.90;;;1.10;;
30697;SDS011;17448;47.200;10.902;2024-03-25T00:28:17;0.77;;;0.77;;
30697;SDS011;17448;47.200;10.902;2024-03-25T00:30:44;2.97;;;1.30;;
30697;SDS011;17448;47.200;10.902;2024-03-25T00:33:10;3.00;;;1.00;;
30697;SDS011;17448;47.200;10.902;2024-03-25T00:35:37;3.15;;;1.40;;
30697;SDS011;17448;47.200;10.902;2024-03-25T00:38:03;1.25;;;1.00;;
30697;SDS011;17448;47.200;10.902;2024-03-25T00:40:30;3.33;;;1.17;;
30697;SDS011;17448;47.200;10.902;2024-03-25T00:42:56;1.27;;;1.02;;
30697;SDS011;17448;47.200;10.902;2024-03-25T00:45:22;4.90;;;1.48;;
30697;SDS011;17448;47.200;10.902;2024-03-25T00:47:56;0.90;;;0.90;;
30697;SDS011;17448;47.200;10.902;2024-03-25T00:50:22;1.77;;;0.90;;
30697;SDS011;17448;47.200;10.902;2024-03-25T00:52:49;1.30;;;1.10;;
30697;SDS011;17448;47.200;10.902;2024-03-25T00:55:15;2.50;;;1.35;;
30697;SDS011;17448;47.200;10.902;2024-03-25T00:57:41;2.22;;;0.85;;
30697;SDS011;17448;47.200;10.902;2024-03-25T01:00:09;1.38;;;0.98;;
30697;SDS011;17448;47.200;10.902;2024-03-25T01:02:35;2.05;;;1.08;;
30697;SDS011;17448;47.200;10.902;2024-03-25T01:05:02;4.63;;;1.25;;
30697;SDS011;17448;47.200;10.902;2024-03-25T01:07:30;2.55;;;0.98;;
30697;SDS011;17448;47.200;10.902;2024-03-25T01:09:57;1.15;;;0.95;;
30697;SDS011;17448;47.200;10.902;2024-03-25T01:12:24;3.22;;;1.10;;
30697;SDS011;17448;47.200;10.902;2024-03-25T01:14:50;1.17;;;1.08;;
30697;SDS011;17448;47.200;10.902;2024-03-25T01:17:17;2.13;;;1.10;;
30697;SDS011;17448;47.200;10.902;2024-03-25T01:19:43;3.25;;;1.20;;
30697;SDS011;17448;47.200;10.902;2024-03-25T01:22:10;1.48;;;1.20;;
30697;SDS011;17448;47.200;10.902;2024-03-25T01:24:36;2.13;;;0.98;;
30697;SDS011;17448;47.200;10.902;2024-03-25T01:27:03;1.88;;;1.02;;
30697;SDS011;17448;47.200;10.902;2024-03-25T01:29:30;1.48;;;1.15;;
30697;SDS011;17448;47.200;10.902;2024-03-25T01:31:56;2.70;;;1.10;;
30697;SDS011;17448;47.200;10.902;2024-03-25T01:34:24;2.30;;;1.00;;
30697;SDS011;17448;47.200;10.902;2024-03-25T01:36:51;2.10;;;0.98;;
30697;SDS011;17448;47.200;10.902;2024-03-25T01:39:20;1.48;;;1.27;;
30697;SDS011;17448;47.200;10.902;2024-03-25T01:41:46;2.40;;;1.20;;
30697;SDS011;17448;47.200;10.902;2024-03-25T01:44:13;2.30;;;1.20;;
30697;SDS011;17448;47.200;10.902;2024-03-25T01:46:39;3.20;;;1.10;;
30697;SDS011;17448;47.200;10.902;2024-03-25T01:49:05;3.85;;;1.38;;
30697;SDS011;17448;47.200;10.902;2024-03-25T01:51:32;2.00;;;1.30;;
30697;SDS011;17448;47.200;10.902;2024-03-25T01:53:59;3.10;;;1.40;;
30697;SDS011;17448;47.200;10.902;2024-03-25T01:56:26;1.95;;;1.27;;
30697;SDS011;17448;47.200;10.902;2024-03-25T01:58:53;1.58;;;1.00;;
30697;SDS011;17448;47.200;10.902;2024-03-25T02:01:20;3.83;;;1.20;;
30697;SDS011;17448;47.200;10.902;2024-03-25T02:03:46;2.60;;;1.40;;
30697;SDS011;17448;47.200;10.902;2024-03-25T02:06:13;0.98;;;0.95;;
30697;SDS011;17448;47.200;10.902;2024-03-25T02:08:41;3.17;;;1.10;;
30697;SDS011;17448;47.200;10.902;2024-03-25T02:11:07;2.97;;;0.80;;
30697;SDS011;17448;47.200;10.902;2024-03-25T02:13:34;1.50;;;1.10;;
30697;SDS011;17448;47.200;10.902;2024-03-25T02:16:02;2.50;;;0.93;;
30697;SDS011;17448;47.200;10.902;2024-03-25T02:18:29;1.80;;;0.88;;
30697;SDS011;17448;47.200;10.902;2024-03-25T02:20:56;1.48;;;1.08;;
30697;SDS011;17448;47.200;10.902;2024-03-25T02:23:22;3.58;;;1.70;;
30697;SDS011;17448;47.200;10.902;2024-03-25T02:25:49;1.55;;;1.05;;
30697;SDS011;17448;47.200;10.902;2024-03-25T02:28:16;1.10;;;1.00;;
30697;SDS011;17448;47.200;10.902;2024-03-25T02:30:42;2.17;;;0.90;;
30697;SDS011;17448;47.200;10.902;2024-03-25T02:33:09;3.47;;;1.00;;
30697;SDS011;17448;47.200;10.902;2024-03-25T02:35:35;1.60;;;1.38;;
30697;SDS011;17448;47.200;10.902;2024-03-25T02:38:02;0.90;;;0.90;;
30697;SDS011;17448;47.200;10.902;2024-03-25T02:40:28;3.22;;;1.00;;
30697;SDS011;17448;47.200;10.902;2024-03-25T02:42:55;1.92;;;1.08;;
30697;SDS011;17448;47.200;10.902;2024-03-25T02:45:21;2.50;;;1.00;;
30697;SDS011;17448;47.200;10.902;2024-03-25T02:47:48;2.90;;;1.10;;
30697;SDS011;17448;47.200;10.902;2024-03-25T02:50:14;1.35;;;1.00;;
30697;SDS011;17448;47.200;10.902;2024-03-25T02:52:41;2.80;;;1.20;;
30697;SDS011;17448;47.200;10.902;2024-03-25T02:55:07;1.70;;;1.00;;
30697;SDS011;17448;47.200;10.902;2024-03-25T02:57:33;1.50;;;1.20;;
30697;SDS011;17448;47.200;10.902;2024-03-25T03:00:00;1.50;;;0.80;;
30697;SDS011;17448;47.200;10.902;2024-03-25T03:02:26;3.15;;;1.50;;
30697;SDS011;17448;47.200;10.902;2024-03-25T03:04:52;3.50;;;1.50;;
30697;SDS011;17448;47.200;10.902;2024-03-25T03:07:19;1.33;;;0.90;;
30697;SDS011;17448;47.200;10.902;2024-03-25T03:09:45;1.10;;;1.00;;
30697;SDS011;17448;47.200;10.902;2024-03-25T03:12:12;1.65;;;0.95;;
30697;SDS011;17448;47.200;10.902;2024-03-25T03:14:38;1.63;;;1.20;;
30697;SDS011;17448;47.200;10.902;2024-03-25T03:17:04;1.48;;;1.02;;
30697;SDS011;17448;47.200;10.902;2024-03-25T03:19:31;0.90;;;0.82;;
30697;SDS011;17448;47.200;10.902;2024-03-25T03:22:01;3.58;;;1.27;;
30697;SDS011;17448;47.200;10.902;2024-03-25T03:24:27;7.03;;;1.42;;
30697;SDS011;17448;47.200;10.902;2024-03-25T03:26:54;2.97;;;1.10;;
30697;SDS011;17448;47.200;10.902;2024-03-25T03:29:20;2.58;;;1.30;;
30697;SDS011;17448;47.200;10.902;2024-03-25T03:31:47;3.55;;;1.35;;
30697;SDS011;17448;47.200;10.902;2024-03-25T03:34:13;3.33;;;1.30;;
30697;SDS011;17448;47.200;10.902;2024-03-25T03:36:39;2.92;;;1.38;;
30697;SDS011;17448;47.200;10.902;2024-03-25T03:39:06;7.88;;;1.52;;
30697;SDS011;17448;47.200;10.902;2024-03-25T03:41:34;3.03;;;1.30;;
30697;SDS011;17448;47.200;10.902;2024-03-25T03:44:01;3.65;;;1.33;;
30697;SDS011;17448;47.200;10.902;2024-03-25T03:46:28;3.13;;;1.20;;
30697;SDS011;17448;47.200;10.902;2024-03-25T03:48:54;1.63;;;1.13;;
30697;SDS011;17448;47.200;10.902;2024-03-25T03:51:21;3.28;;;1.17;;
30697;SDS011;17448;47.200;10.902;2024-03-25T03:53:47;1.63;;;1.20;;
30697;SDS011;17448;47.200;10.902;2024-03-25T03:56:14;1.45;;;1.10;;
30697;SDS011;17448;47.200;10.902;2024-03-25T03:58:40;1.15;;;1.00;;
30697;SDS011;17448;47.200;10.902;2024-03-25T04:01:13;1.33;;;1.05;;
30697;SDS011;17448;47.200;10.902;2024-03-25T04:03:40;2.13;;;1.20;;
30697;SDS011;17448;47.200;10.902;2024-03-25T04:06:07;3.83;;;1.92;;
30697;SDS011;17448;47.200;10.902;2024-03-25T04:08:34;2.33;;;1.70;;
30697;SDS011;17448;47.200;10.902;2024-03-25T04:11:01;1.10;;;1.00;;
30697;SDS011;17448;47.200;10.902;2024-03-25T04:13:27;2.28;;;1.15;;
30697;SDS011;17448;47.200;10.902;2024-03-25T04:15:53;3.95;;;1.48;;
30697;SDS011;17448;47.200;10.902;2024-03-25T04:18:20;2.45;;;1.00;;
30697;SDS011;17448;47.200;10.902;2024-03-25T04:20:46;4.40;;;1.35;;
30697;SDS011;17448;47.200;10.902;2024-03-25T04:23:12;5.85;;;1.13;;
30697;SDS011;17448;47.200;10.902;2024-03-25T04:25:39;7.03;;;1.55;;
30697;SDS011;17448;47.200;10.902;2024-03-25T04:28:05;2.33;;;1.20;;
30697;SDS011;17448;47.200;10.902;2024-03-25T04:30:32;1.40;;;0.93;;
30697;SDS011;17448;47.200;10.902;2024-03-25T04:32:58;1.85;;;1.50;;
30697;SDS011;17448;47.200;10.902;2024-03-25T04:35:25;4.55;;;1.50;;
30697;SDS011;17448;47.200;10.902;2024-03-25T04:37:51;4.30;;;1.60;;
30697;SDS011;17448;47.200;10.902;2024-03-25T04:40:18;1.98;;;1.35;;
30697;SDS011;17448;47.200;10.902;2024-03-25T04:42:45;4.13;;;1.40;;
30697;SDS011;17448;47.200;10.902;2024-03-25T04:45:11;1.45;;;1.30;;
30697;SDS011;17448;47.200;10.902;2024-03-25T04:47:39;2.70;;;1.20;;
30697;SDS011;17448;47.200;10.902;2024-03-25T04:50:05;1.38;;;1.05;;
30697;SDS011;17448;47.200;10.902;2024-03-25T04:52:32;2.47;;;1.30;;
30697;SDS011;17448;47.200;10.902;2024-03-25T04:54:58;0.85;;;0.80;;
30697;SDS011;17448;47.200;10.902;2024-03-25T04:57:24;4.00;;;1.20;;
30697;SDS011;17448;47.200;10.902;2024-03-25T04:59:51;3.33;;;1.20;;
30697;SDS011;17448;47.200;10.902;2024-03-25T05:02:17;2.10;;;1.65;;
30697;SDS011;17448;47.200;10.902;2024-03-25T05:04:43;3.90;;;1.65;;
30697;SDS011;17448;47.200;10.902;2024-03-25T05:07:10;2.88;;;1.67;;
30697;SDS011;17448;47.200;10.902;2024-03-25T05:09:36;3.67;;;1.40;;
30697;SDS011;17448;47.200;10.902;2024-03-25T05:12:02;5.40;;;1.80;;
30697;SDS011;17448;47.200;10.902;2024-03-25T05:14:29;4.65;;;1.40;;
30697;SDS011;17448;47.200;10.902;2024-03-25T05:16:55;2.47;;;1.10;;
30697;SDS011;17448;47.200;10.902;2024-03-25T05:19:21;1.63;;;1.20;;
30697;SDS011;17448;47.200;10.902;2024-03-25T05:21:48;2.05;;;1.48;;
30697;SDS011;17448;47.200;10.902;2024-03-25T05:24:14;6.72;;;3.30;;
30697;SDS011;17448;47.200;10.902;2024-03-25T05:26:41;4.50;;;2.85;;
30697;SDS011;17448;47.200;10.902;2024-03-25T05:29:07;4.50;;;1.88;;
30697;SDS011;17448;47.200;10.902;2024-03-25T05:31:35;6.05;;;1.38;;
30697;SDS011;17448;47.200;10.902;2024-03-25T05:34:01;1.75;;;1.15;;
30697;SDS011;17448;47.200;10.902;2024-03-25T05:36:33;3.90;;;1.80;;
30697;SDS011;17448;47.200;10.902;2024-03-25T05:39:00;5.30;;;1.73;;
30697;SDS011;17448;47.200;10.902;2024-03-25T05:41:26;4.72;;;1.85;;
30697;SDS011;17448;47.200;10.902;2024-03-25T05:43:52;2.70;;;1.48;;
30697;SDS011;17448;47.200;10.902;2024-03-25T05:46:19;2.10;;;1.70;;
30697;SDS011;17448;47.200;10.902;2024-03-25T05:48:45;3.30;;;1.60;;
30697;SDS011;17448;47.200;10.902;2024-03-25T05:51:11;4.15;;;2.13;;
30697;SDS011;17448;47.200;10.902;2024-03-25T05:53:40;4.82;;;2.63;;
30697;SDS011;17448;47.200;10.902;2024-03-25T05:56:07;5.70;;;2.90;;
30697;SDS011;17448;47.200;10.902;2024-03-25T05:58:33;5.20;;;2.55;;
30697;SDS011;17448;47.200;10.902;2024-03-25T06:00:59;4.63;;;2.20;;
30697;SDS011;17448;47.200;10.902;2024-03-25T06:03:26;3.47;;;2.08;;
30697;SDS011;17448;47.200;10.902;2024-03-25T06:05:53;4.43;;;1.88;;
30697;SDS011;17448;47.200;10.902;2024-03-25T06:08:19;3.33;;;2.08;;
30697;SDS011;17448;47.200;10.902;2024-03-25T06:10:50;6.45;;;1.90;;
30697;SDS011;17448;47.200;10.902;2024-03-25T06:13:19;4.78;;;2.78;;
30697;SDS011;17448;47.200;10.902;2024-03-25T06:15:46;10.80;;;2.70;;
30697;SDS011;17448;47.200;10.902;2024-03-25T06:18:12;3.75;;;1.90;;
30697;SDS011;17448;47.200;10.902;2024-03-25T06:20:39;3.58;;;1.60;;
30697;SDS011;17448;47.200;10.902;2024-03-25T06:23:05;3.50;;;1.80;;
30697;SDS011;17448;47.200;10.902;2024-03-25T06:25:31;3.67;;;1.50;;
30697;SDS011;17448;47.200;10.902;2024-03-25T06:27:58;2.97;;;1.80;;
30697;SDS011;17448;47.200;10.902;2024-03-25T06:30:24;2.72;;;1.60;;
30697;SDS011;17448;47.200;10.902;2024-03-25T06:33:11;2.58;;;1.70;;
30697;SDS011;17448;47.200;10.902;2024-03-25T06:35:56;3.42;;;1.50;;
30697;SDS011;17448;47.200;10.902;2024-03-25T06:38:22;4.93;;;1.42;;
30697;SDS011;17448;47.200;10.902;2024-03-25T06:40:49;3.38;;;1.88;;
30697;SDS011;17448;47.200;10.902;2024-03-25T06:43:16;6.28;;;2.03;;
30697;SDS011;17448;47.200;10.902;2024-03-25T06:45:44;4.90;;;1.70;;
30697;SDS011;17448;47.200;10.902;2024-03-25T06:48:10;4.05;;;2.00;;
30697;SDS011;17448;47.200;10.902;2024-03-25T06:50:37;3.72;;;2.28;;
30697;SDS011;17448;47.200;10.902;2024-03-25T06:53:03;9.95;;;2.47;;
30697;SDS011;17448;47.200;10.902;2024-03-25T06:55:30;8.77;;;3.13;;
30697;SDS011;17448;47.200;10.902;2024-03-25T06:57:57;8.00;;;2.20;;
30697;SDS011;17448;47.200;10.902;2024-03-25T07:00:23;6.93;;;2.75;;
30697;SDS011;17448;47.200;10.902;2024-03-25T07:02:49;9.95;;;2.75;;
30697;SDS011;17448;47.200;10.902;2024-03-25T07:05:16;4.28;;;2.45;;
30697;SDS011;17448;47.200;10.902;2024-03-25T07:07:42;5.38;;;2.35;;
30697;SDS011;17448;47.200;10.902;2024-03-25T07:10:09;6.28;;;2.22;;
30697;SDS011;17448;47.200;10.902;2024-03-25T07:12:35;5.60;;;2.20;;
30697;SDS011;17448;47.200;10.902;2024-03-25T07:15:02;5.60;;;2.00;;
30697;SDS011;17448;47.200;10.902;2024-03-25T07:17:28;3.65;;;2.03;;
30697;SDS011;17448;47.200;10.902;2024-03-25T07:19:54;3.00;;;2.10;;
30697;SDS011;17448;47.200;10.902;2024-03-25T07:22:21;8.68;;;3.30;;
30697;SDS011;17448;47.200;10.902;2024-03-25T07:24:47;18.75;;;3.90;;
30697;SDS011;17448;47.200;10.902;2024-03-25T07:27:13;7.50;;;2.80;;
30697;SDS011;17448;47.200;10.902;2024-03-25T07:29:40;9.50;;;3.72;;
30697;SDS011;17448;47.200;10.902;2024-03-25T07:32:06;14.93;;;3.97;;
30697;SDS011;17448;47.200;10.902;2024-03-25T07:34:33;8.48;;;3.38;;
30697;SDS011;17448;47.200;10.902;2024-03-25T07:36:59;8.38;;;3.20;;
30697;SDS011;17448;47.200;10.902;2024-03-25T07:39:26;4.82;;;3.50;;
30697;SDS011;17448;47.200;10.902;2024-03-25T07:41:52;9.05;;;4.57;;
30697;SDS011;17448;47.200;10.902;2024-03-25T07:44:19;11.27;;;4.43;;
30697;SDS011;17448;47.200;10.902;2024-03-25T07:46:45;10.30;;;5.65;;
30697;SDS011;17448;47.200;10.902;2024-03-25T07:49:12;13.48;;;5.70;;
30697;SDS011;17448;47.200;10.902;2024-03-25T07:51:38;12.80;;;5.47;;
30697;SDS011;17448;47.200;10.902;2024-03-25T07:54:05;19.95;;;5.40;;
30697;SDS011;17448;47.200;10.902;2024-03-25T07:56:31;12.43;;;6.07;;
30697;SDS011;17448;47.200;10.902;2024-03-25T07:59:02;9.98;;;6.05;;
30697;SDS011;17448;47.200;10.902;2024-03-25T08:01:29;8.93;;;4.85;;
30697;SDS011;17448;47.200;10.902;2024-03-25T08:03:55;13.70;;;5.22;;
30697;SDS011;17448;47.200;10.902;2024-03-25T08:06:22;10.52;;;4.70;;
30697;SDS011;17448;47.200;10.902;2024-03-25T08:08:48;10.93;;;5.43;;
30697;SDS011;17448;47.200;10.902;2024-03-25T08:11:14;5.50;;;4.03;;
30697;SDS011;17448;47.200;10.902;2024-03-25T08:13:41;13.35;;;5.90;;
30697;SDS011;17448;47.200;10.902;2024-03-25T08:16:07;9.32;;;4.97;;
30697;SDS011;17448;47.200;10.902;2024-03-25T08:18:34;13.77;;;5.75;;
30697;SDS011;17448;47.200;10.902;2024-03-25T08:21:00;11.80;;;4.05;;
30697;SDS011;17448;47.200;10.902;2024-03-25T08:23:27;22.85;;;13.50;;
30697;SDS011;17448;47.200;10.902;2024-03-25T08:25:53;9.13;;;3.47;;
30697;SDS011;17448;47.200;10.902;2024-03-25T08:28:20;19.92;;;3.92;;
30697;SDS011;17448;47.200;10.902;2024-03-25T08:30:46;24.02;;;7.18;;
30697;SDS011;17448;47.200;10.902;2024-03-25T08:33:12;39.40;;;6.18;;
30697;SDS011;17448;47.200;10.902;2024-03-25T08:35:39;8.15;;;2.70;;
30697;SDS011;17448;47.200;10.902;2024-03-25T08:38:05;2.72;;;1.42;;
30697;SDS011;17448;47.200;10.902;2024-03-25T08:40:31;5.65;;;2.22;;
30697;SDS011;17448;47.200;10.902;2024-03-25T08:42:58;3.67;;;1.40;;
30697;SDS011;17448;47.200;10.902;2024-03-25T08:45:24;3.22;;;1.35;;
30697;SDS011;17448;47.200;10.902;2024-03-25T08:47:51;2.85;;;1.35;;
30697;SDS011;17448;47.200;10.902;2024-03-25T08:50:17;1.33;;;1.20;;
30697;SDS011;17448;47.200;10.902;2024-03-25T08:52:43;6.07;;;1.23;;
30697;SDS011;17448;47.200;10.902;2024-03-25T08:55:10;1.65;;;1.13;;
30697;SDS011;17448;47.200;10.902;2024-03-25T08:57:37;3.28;;;1.35;;
30697;SDS011;17448;47.200;10.902;2024-03-25T09:00:03;1.15;;;1.02;;
30697;SDS011;17448;47.200;10.902;2024-03-25T09:02:30;2.05;;;1.23;;
30697;SDS011;17448;47.200;10.902;2024-03-25T09:04:56;3.08;;;0.98;;
30697;SDS011;17448;47.200;10.902;2024-03-25T09:07:22;2.13;;;1.23;;
30697;SDS011;17448;47.200;10.902;2024-03-25T09:09:49;3.65;;;1.40;;
30697;SDS011;17448;47.200;10.902;2024-03-25T09:12:37;0.98;;;0.85;;
30697;SDS011;17448;47.200;10.902;2024-03-25T09:15:04;1.63;;;1.20;;
30697;SDS011;17448;47.200;10.902;2024-03-25T09:17:31;1.45;;;1.00;;
30697;SDS011;17448;47.200;10.902;2024-03-25T09:19:57;2.08;;;0.93;;
30697;SDS011;17448;47.200;10.902;2024-03-25T09:22:23;2.30;;;1.08;;
30697;SDS011;17448;47.200;10.902;2024-03-25T09:24:50;0.90;;;0.90;;
30697;SDS011;17448;47.200;10.902;2024-03-25T09:27:16;1.25;;;1.10;;
30697;SDS011;17448;47.200;10.902;2024-03-25T09:29:43;1.35;;;0.90;;
30697;SDS011;17448;47.200;10.902;2024-03-25T09:32:09;2.92;;;1.20;;
30697;SDS011;17448;47.200;10.902;2024-03-25T09:34:35;1.00;;;0.90;;
30697;SDS011;17448;47.200;10.902;2024-03-25T09:37:02;1.10;;;1.00;;
30697;SDS011;17448;47.200;10.902;2024-03-25T09:39:28;2.10;;;1.05;;
30697;SDS011;17448;47.200;10.902;2024-03-25T09:41:55;1.63;;;0.93;;
30697;SDS011;17448;47.200;10.902;2024-03-25T09:44:24;1.45;;;0.90;;
30697;SDS011;17448;47.200;10.902;2024-03-25T09:46:51;0.80;;;0.80;;
30697;SDS011;17448;47.200;10.902;2024-03-25T09:49:17;1.60;;;1.02;;
30697;SDS011;17448;47.200;10.902;2024-03-25T09:51:45;1.55;;;1.00;;
30697;SDS011;17448;47.200;10.902;2024-03-25T09:54:11;1.33;;;1.00;;
30697;SDS011;17448;47.200;10.902;2024-03-25T09:56:38;1.75;;;1.08;;
30697;SDS011;17448;47.200;10.902;2024-03-25T09:59:04;1.02;;;0.82;;
30697;SDS011;17448;47.200;10.902;2024-03-25T10:01:31;2.13;;;1.00;;
30697;SDS011;17448;47.200;10.902;2024-03-25T10:03:58;1.33;;;0.80;;
30697;SDS011;17448;47.200;10.902;2024-03-25T10:06:24;0.70;;;0.70;;
30697;SDS011;17448;47.200;10.902;2024-03-25T10:08:53;1.08;;;0.80;;
30697;SDS011;17448;47.200;10.902;2024-03-25T10:11:19;1.20;;;1.10;;
30697;SDS011;17448;47.200;10.902;2024-03-25T10:13:45;1.67;;;1.00;;
30697;SDS011;17448;47.200;10.902;2024-03-25T10:16:13;1.75;;;1.30;;
30697;SDS011;17448;47.200;10.902;2024-03-25T10:18:40;1.02;;;0.77;;
30697;SDS011;17448;47.200;10.902;2024-03-25T10:21:09;2.17;;;1.08;;
30697;SDS011;17448;47.200;10.902;2024-03-25T10:23:36;1.73;;;1.00;;
30697;SDS011;17448;47.200;10.902;2024-03-25T10:26:06;2.38;;;1.15;;
30697;SDS011;17448;47.200;10.902;2024-03-25T10:28:32;1.00;;;0.70;;
30697;SDS011;17448;47.200;10.902;2024-03-25T10:31:04;1.00;;;0.75;;
30697;SDS011;17448;47.200;10.902;2024-03-25T10:33:31;1.20;;;0.90;;
30697;SDS011;17448;47.200;10.902;2024-03-25T10:35:57;0.70;;;0.70;;
30697;SDS011;17448;47.200;10.902;2024-03-25T10:38:25;1.42;;;0.88;;
30697;SDS011;17448;47.200;10.902;2024-03-25T10:40:52;1.23;;;0.70;;
30697;SDS011;17448;47.200;10.902;2024-03-25T10:43:21;5.07;;;0.88;;
30697;SDS011;17448;47.200;10.902;2024-03-25T10:45:47;0.80;;;0.60;;
30697;SDS011;17448;47.200;10.902;2024-03-25T10:48:15;1.33;;;0.80;;
30697;SDS011;17448;47.200;10.902;2024-03-25T10:50:43;2.30;;;0.90;;
30697;SDS011;17448;47.200;10.902;2024-03-25T10:53:10;1.27;;;0.85;;
30697;SDS011;17448;47.200;10.902;2024-03-25T10:55:37;0.80;;;0.77;;
30697;SDS011;17448;47.200;10.902;2024-03-25T10:58:04;1.35;;;0.70;;
30697;SDS011;17448;47.200;10.902;2024-03-25T11:00:31;0.60;;;0.60;;
30697;SDS011;17448;47.200;10.902;2024-03-25T11:02:58;0.60;;;0.60;;
30697;SDS011;17448;47.200;10.902;2024-03-25T11:05:25;0.80;;;0.70;;
30697;SDS011;17448;47.200;10.902;2024-03-25T11:07:52;0.77;;;0.70;;
30697;SDS011;17448;47.200;10.902;2024-03-25T11:10:18;1.33;;;0.90;;
30697;SDS011;17448;47.200;10.902;2024-03-25T11:12:45;1.00;;;0.70;;
30697;SDS011;17448;47.200;10.902;2024-03-25T11:15:15;1.05;;;0.65;;
30697;SDS011;17448;47.200;10.902;2024-03-25T11:17:48;2.25;;;0.70;;
30697;SDS011;17448;47.200;10.902;2024-03-25T11:20:17;0.77;;;0.70;;
30697;SDS011;17448;47.200;10.902;2024-03-25T11:22:51;1.00;;;0.70;;
30697;SDS011;17448;47.200;10.902;2024-03-25T11:27:44;1.60;;;0.90;;
30697;SDS011;17448;47.200;10.902;2024-03-25T11:30:11;1.42;;;0.70;;
30697;SDS011;17448;47.200;10.902;2024-03-25T11:32:44;2.20;;;0.75;;
30697;SDS011;17448;47.200;10.902;2024-03-25T11:35:11;1.05;;;0.80;;
30697;SDS011;17448;47.200;10.902;2024-03-25T11:37:40;1.42;;;1.33;;
30697;SDS011;17448;47.200;10.902;2024-03-25T11:40:07;1.10;;;0.73;;
30697;SDS011;17448;47.200;10.902;2024-03-25T11:42:40;3.00;;;0.80;;
30697;SDS011;17448;47.200;10.902;2024-03-25T11:45:18;4.88;;;1.02;;
30697;SDS011;17448;47.200;10.902;2024-03-25T11:47:46;0.80;;;0.68;;
30697;SDS011;17448;47.200;10.902;2024-03-25T11:50:13;2.20;;;0.75;;
30697;SDS011;17448;47.200;10.902;2024-03-25T11:52:40;0.93;;;0.65;;
30697;SDS011;17448;47.200;10.902;2024-03-25T11:55:07;1.33;;;0.90;;
30697;SDS011;17448;47.200;10.902;2024-03-25T11:57:38;0.70;;;0.57;;
30697;SDS011;17448;47.200;10.902;2024-03-25T12:00:05;1.02;;;0.70;;
30697;SDS011;17448;47.200;10.902;2024-03-25T12:02:46;0.80;;;0.70;;
30697;SDS011;17448;47.200;10.902;2024-03-25T12:05:15;2.87;;;0.80;;
30697;SDS011;17448;47.200;10.902;2024-03-25T12:07:42;1.65;;;0.63;;
30697;SDS011;17448;47.200;10.902;2024-03-25T12:10:09;2.38;;;0.70;;
30697;SDS011;17448;47.200;10.902;2024-03-25T12:12:57;2.00;;;0.60;;
30697;SDS011;17448;47.200;10.902;2024-03-25T12:15:23;0.50;;;0.50;;
30697;SDS011;17448;47.200;10.902;2024-03-25T12:17:49;1.83;;;0.70;;
30697;SDS011;17448;47.200;10.902;2024-03-25T12:20:16;2.22;;;0.95;;
30697;SDS011;17448;47.200;10.902;2024-03-25T12:22:43;1.30;;;0.55;;
30697;SDS011;17448;47.200;10.902;2024-03-25T12:25:09;0.80;;;0.73;;
30697;SDS011;17448;47.200;10.902;2024-03-25T12:27:36;0.77;;;0.77;;
30697;SDS011;17448;47.200;10.902;2024-03-25T12:30:06;0.73;;;0.60;;
30697;SDS011;17448;47.200;10.902;2024-03-25T12:32:40;2.28;;;0.80;;
30697;SDS011;17448;47.200;10.902;2024-03-25T12:35:10;2.67;;;0.65;;
30697;SDS011;17448;47.200;10.902;2024-03-25T12:37:37;1.08;;;0.75;;
30697;SDS011;17448;47.200;10.902;2024-03-25T12:40:07;1.33;;;0.65;;
30697;SDS011;17448;47.200;10.902;2024-03-25T12:42:35;2.00;;;1.00;;
30697;SDS011;17448;47.200;10.902;2024-03-25T12:45:02;1.35;;;0.73;;
30697;SDS011;17448;47.200;10.902;2024-03-25T12:47:29;3.15;;;0.85;;
30697;SDS011;17448;47.200;10.902;2024-03-25T12:49:57;3.75;;;0.60;;
30697;SDS011;17448;47.200;10.902;2024-03-25T12:52:24;0.77;;;0.60;;
30697;SDS011;17448;47.200;10.902;2024-03-25T12:54:50;0.73;;;0.70;;
30697;SDS011;17448;47.200;10.902;2024-03-25T12:57:17;2.67;;;0.90;;
30697;SDS011;17448;47.200;10.902;2024-03-25T12:59:46;0.93;;;0.80;;
30697;SDS011;17448;47.200;10.902;2024-03-25T13:02:13;2.53;;;0.63;;
30697;SDS011;17448;47.200;10.902;2024-03-25T13:04:40;2.22;;;0.73;;
30697;SDS011;17448;47.200;10.902;2024-03-25T13:07:08;0.82;;;0.70;;
30697;SDS011;17448;47.200;10.902;2024-03-25T13:09:35;2.00;;;1.00;;
30697;SDS011;17448;47.200;10.902;2024-03-25T13:12:03;1.85;;;0.63;;
30697;SDS011;17448;47.200;10.902;2024-03-25T13:14:30;1.23;;;0.80;;
30697;SDS011;17448;47.200;10.902;2024-03-25T13:16:56;1.85;;;0.73;;
30697;SDS011;17448;47.200;10.902;2024-03-25T13:19:22;0.65;;;0.65;;
30697;SDS011;17448;47.200;10.902;2024-03-25T13:21:53;0.70;;;0.70;;
30697;SDS011;17448;47.200;10.902;2024-03-25T13:24:21;0.80;;;0.52;;
30697;SDS011;17448;47.200;10.902;2024-03-25T13:26:48;1.27;;;0.80;;
30697;SDS011;17448;47.200;10.902;2024-03-25T13:29:15;2.17;;;0.93;;
30697;SDS011;17448;47.200;10.902;2024-03-25T13:31:42;1.35;;;0.70;;
30697;SDS011;17448;47.200;10.902;2024-03-25T13:34:08;1.35;;;0.80;;
30697;SDS011;17448;47.200;10.902;2024-03-25T13:36:35;1.13;;;0.80;;
30697;SDS011;17448;47.200;10.902;2024-03-25T13:39:02;1.02;;;0.63;;
30697;SDS011;17448;47.200;10.902;2024-03-25T13:41:31;0.85;;;0.70;;
30697;SDS011;17448;47.200;10.902;2024-03-25T13:43:58;0.90;;;0.90;;
30697;SDS011;17448;47.200;10.902;2024-03-25T13:46:26;1.55;;;1.15;;
30697;SDS011;17448;47.200;10.902;2024-03-25T13:48:52;3.50;;;0.80;;
30697;SDS011;17448;47.200;10.902;2024-03-25T13:51:19;2.20;;;0.80;;
30697;SDS011;17448;47.200;10.902;2024-03-25T13:53:46;0.60;;;0.60;;
30697;SDS011;17448;47.200;10.902;2024-03-25T13:56:13;1.92;;;0.98;;
30697;SDS011;17448;47.200;10.902;2024-03-25T13:58:40;0.90;;;0.60;;
30697;SDS011;17448;47.200;10.902;2024-03-25T14:01:06;1.98;;;0.98;;
30697;SDS011;17448;47.200;10.902;2024-03-25T14:03:34;1.15;;;0.70;;
30697;SDS011;17448;47.200;10.902;2024-03-25T14:06:01;1.35;;;0.88;;
30697;SDS011;17448;47.200;10.902;2024-03-25T14:08:28;0.88;;;0.55;;
30697;SDS011;17448;47.200;10.902;2024-03-25T14:11:01;2.58;;;0.70;;
30697;SDS011;17448;47.200;10.902;2024-03-25T14:13:29;0.70;;;0.70;;
30697;SDS011;17448;47.200;10.902;2024-03-25T14:15:55;10.20;;;1.60;;
30697;SDS011;17448;47.200;10.902;2024-03-25T14:18:21;2.65;;;0.57;;
30697;SDS011;17448;47.200;10.902;2024-03-25T14:20:51;1.73;;;0.55;;
30697;SDS011;17448;47.200;10.902;2024-03-25T14:23:17;13.75;;;1.27;;
30697;SDS011;17448;47.200;10.902;2024-03-25T14:25:44;1.13;;;0.68;;
30697;SDS011;17448;47.200;10.902;2024-03-25T14:28:10;0.75;;;0.60;;
30697;SDS011;17448;47.200;10.902;2024-03-25T16:09:47;3.30;;;1.13;;
30697;SDS011;17448;47.200;10.902;2024-03-25T16:12:13;2.58;;;0.95;;
30697;SDS011;17448;47.200;10.902;2024-03-25T16:14:40;4.20;;;1.10;;